Campus, Illinois
Current Conditions -  °F | °C
As of 2:15 PM on Sunday 23 Nov 2014 (Local Time) from KPNT Reporting Station
Light Rain Light Rain  
Wind Chill: 52°   Ceiling: 800
Heat Index: 52°   Visibility: 5mi
Dew Point: 51°   Wind: 14mph
Humidity: 96%   Direction: 140°SE
Pressure: 29.48"   Gusts: NA
Location:  41.02°N, 88.31°W
Report Text: KPNT 232015Z AUTO 14012KT 5SM -RA OVC008 11/11 A2948 RMK AO2 P0001 T01110105
Loading
Personal Weather Stations






























Interactive Weather Map New forecast layout! Learn more

10-Day Weather Forecast

Advertisements
Track Severe Weather on mobile